Time;durP1;ratioP1;P1;durP2;ratioP2;P2;SDS_P1;SDS_P2;PMS_P1;PMS_P2;Temp;Humidity;BMP_temperature;BMP_pressure;BME280_temperature;BME280_humidity;BME280_pressure;Samples;Min_cycle;Max_cycle;Signal;HPM_P1;HPM_P2
2022/02/12 00:01:55;;;;;;;95.15;40.08;;;;;;;5.52;63.85;100556.88;5130387;27;20027;-74
2022/02/12 00:04:20;;;;;;;159.85;50.30;;;;;;;5.47;64.68;100566.88;5129825;27;20087;-74
2022/02/12 00:06:46;;;;;;;162.20;48.40;;;;;;;5.33;66.14;100557.34;5127871;27;20039;-76
2022/02/12 00:09:11;;;;;;;83.65;38.85;;;;;;;5.35;63.35;100546.75;5132196;27;20039;-76
2022/02/12 00:11:37;;;;;;;83.22;35.80;;;;;;;5.18;62.36;100555.78;5131600;27;21173;-76
2022/02/12 00:14:02;;;;;;;79.47;36.43;;;;;;;5.01;62.00;100564.84;5128835;27;20332;-75
2022/02/12 00:16:28;;;;;;;81.68;36.67;;;;;;;4.52;62.93;100562.13;5132202;27;20034;-77
2022/02/12 00:18:53;;;;;;;78.43;35.30;;;;;;;4.59;62.56;100565.16;5132244;27;20027;-74
2022/02/12 00:21:19;;;;;;;79.87;36.20;;;;;;;4.39;64.24;100551.63;5129366;27;20224;-74
2022/02/12 00:23:44;;;;;;;77.13;34.43;;;;;;;4.35;65.87;100562.41;5130940;27;20020;-74
2022/02/12 00:26:10;;;;;;;75.93;33.50;;;;;;;4.27;65.71;100531.47;5127486;27;20091;-75
2022/02/12 00:28:36;;;;;;;77.27;35.03;;;;;;;4.28;66.71;100564.59;5129838;27;20066;-76
2022/02/12 00:31:01;;;;;;;87.57;36.13;;;;;;;4.23;66.26;100547.50;5125362;27;20222;-76
2022/02/12 00:33:27;;;;;;;83.13;34.60;;;;;;;4.42;66.52;100563.69;5129265;27;20024;-76
2022/02/12 00:35:52;;;;;;;75.97;33.87;;;;;;;4.46;64.93;100552.03;5125502;27;20027;-74
2022/02/12 00:38:18;;;;;;;70.33;32.13;;;;;;;4.58;64.53;100561.69;5130164;27;20019;-77
2022/02/12 00:40:43;;;;;;;70.27;32.00;;;;;;;4.43;63.62;100579.31;5130574;27;20035;-77
2022/02/12 00:43:09;;;;;;;67.47;29.85;;;;;;;4.14;64.14;100562.03;5130060;27;20050;-78
2022/02/12 00:45:34;;;;;;;73.17;31.13;;;;;;;4.01;64.64;100571.63;5129272;27;20043;-76
2022/02/12 00:48:00;;;;;;;74.30;30.67;;;;;;;3.81;66.08;100573.75;5136096;27;20035;-76
2022/02/12 00:50:25;;;;;;;74.00;31.07;;;;;;;4.05;66.51;100586.22;5128437;27;20047;-76
2022/02/12 00:52:51;;;;;;;69.97;29.75;;;;;;;4.05;66.57;100576.56;5122960;28;20322;-76
2022/02/12 00:55:16;;;;;;;72.53;31.93;;;;;;;4.28;65.67;100576.88;5123690;27;20155;-77
2022/02/12 00:57:42;;;;;;;77.43;37.10;;;;;;;4.15;66.58;100580.25;5127391;27;20255;-74
2022/02/12 01:00:07;;;;;;;77.30;36.30;;;;;;;4.42;65.86;100564.50;5131514;27;20257;-74
2022/02/12 01:02:33;;;;;;;76.13;36.40;;;;;;;4.48;65.40;100556.22;5144651;27;20035;-78
2022/02/12 01:04:59;;;;;;;90.40;39.03;;;;;;;4.51;65.57;100555.19;5138669;27;20058;-77
2022/02/12 01:07:24;;;;;;;103.87;41.00;;;;;;;4.36;66.51;100578.03;5124437;27;20051;-76
2022/02/12 01:09:50;;;;;;;96.10;41.03;;;;;;;4.27;68.01;100567.31;5124712;27;20031;-76
2022/02/12 01:12:15;;;;;;;91.60;40.10;;;;;;;4.30;67.97;100552.22;5124410;27;20043;-76
2022/02/12 01:14:41;;;;;;;91.00;38.50;;;;;;;4.46;67.51;100567.78;5124932;27;20073;-75
2022/02/12 01:17:07;;;;;;;86.60;34.40;;;;;;;4.62;67.12;100564.97;5123724;27;20038;-77
2022/02/12 01:19:32;;;;;;;94.82;37.13;;;;;;;4.65;66.45;100573.44;5124246;27;20092;-74
2022/02/12 01:21:58;;;;;;;103.95;38.47;;;;;;;4.63;66.84;100579.75;5123735;27;20251;-78
2022/02/12 01:24:23;;;;;;;84.43;34.23;;;;;;;4.61;67.43;100579.84;5124589;27;20042;-76
2022/02/12 01:26:51;;;;;;;118.90;37.17;;;;;;;4.71;66.37;100574.81;5124520;28;20024;-76
2022/02/12 01:29:16;;;;;;;87.70;35.83;;;;;;;4.85;65.79;100587.00;5124733;27;20036;-76
2022/02/12 01:31:42;;;;;;;87.43;33.83;;;;;;;4.89;65.01;100580.59;5124538;28;20095;-74
2022/02/12 01:34:07;;;;;;;79.27;33.97;;;;;;;4.80;64.98;100589.94;5124499;27;20505;-74
2022/02/12 01:36:33;;;;;;;78.03;33.80;;;;;;;4.79;65.14;100586.47;5123175;27;20023;-77
2022/02/12 01:38:58;;;;;;;90.13;33.58;;;;;;;4.62;65.08;100550.06;5124532;27;20058;-76
2022/02/12 01:41:24;;;;;;;92.50;35.67;;;;;;;4.62;65.95;100565.78;5124043;27;20084;-76
2022/02/12 01:43:49;;;;;;;78.83;32.67;;;;;;;4.77;65.99;100596.22;5124350;28;20038;-76
2022/02/12 01:46:15;;;;;;;70.70;31.00;;;;;;;4.75;66.07;100589.41;5123089;28;20042;-75
2022/02/12 01:48:43;;;;;;;75.88;30.88;;;;;;;4.51;67.24;100596.31;5124094;27;20108;-77
2022/02/12 01:51:08;;;;;;;78.18;31.00;;;;;;;4.76;66.24;100585.84;5124155;27;20278;-77
2022/02/12 01:53:34;;;;;;;68.10;27.73;;;;;;;4.74;66.68;100598.22;5124426;27;20038;-76
2022/02/12 01:55:59;;;;;;;62.60;28.40;;;;;;;4.79;66.06;100578.59;5123983;27;20081;-76
2022/02/12 01:58:25;;;;;;;68.70;28.40;;;;;;;4.78;65.76;100603.16;5124236;27;20066;-75
2022/02/12 02:00:51;;;;;;;61.10;25.90;;;;;;;4.68;66.49;100601.25;5123027;27;20291;-77
2022/02/12 02:03:17;;;;;;;57.93;26.13;;;;;;;4.22;66.99;100544.03;5121762;28;20034;-74
2022/02/12 02:05:42;;;;;;;53.22;25.67;;;;;;;4.43;67.77;100605.53;5128781;27;20103;-78
2022/02/12 02:08:08;;;;;;;57.47;26.50;;;;;;;4.45;67.69;100611.50;5127594;27;20073;-76
2022/02/12 02:10:33;;;;;;;59.28;26.10;;;;;;;4.39;68.01;100601.44;5126851;27;20046;-76
2022/02/12 02:12:59;;;;;;;57.53;26.13;;;;;;;4.72;67.13;100611.44;5139125;27;20027;-76
2022/02/12 02:15:25;;;;;;;52.27;23.77;;;;;;;4.49;67.40;100602.50;5142869;27;20294;-74
2022/02/12 02:17:50;;;;;;;52.40;22.50;;;;;;;4.20;69.03;100616.69;5133418;27;20023;-74
2022/02/12 02:20:16;;;;;;;49.73;23.40;;;;;;;4.26;68.35;100618.91;5121758;28;20024;-77
2022/02/12 02:23:11;;;;;;;48.20;21.97;;;;;;;4.15;68.93;100627.44;5124534;27;20075;-75
2022/02/12 02:25:36;;;;;;;46.67;20.35;;;;;;;4.09;69.34;100632.25;5125471;27;20508;-74
2022/02/12 02:28:02;;;;;;;41.80;19.17;;;;;;;4.04;69.53;100626.47;5138234;27;20039;-77
2022/02/12 02:30:27;;;;;;;43.93;20.17;;;;;;;4.15;69.18;100624.81;5128609;27;20035;-75
2022/02/12 02:32:54;;;;;;;44.67;21.17;;;;;;;3.86;70.42;100641.59;5129193;27;20267;-76
2022/02/12 02:35:21;;;;;;;41.30;19.10;;;;;;;4.02;69.47;100638.81;5128084;27;20038;-76
2022/02/12 02:37:48;;;;;;;45.47;19.43;;;;;;;4.05;70.12;100644.72;5127841;27;20035;-76
2022/02/12 02:40:16;;;;;;;43.43;20.63;;;;;;;4.17;68.98;100630.00;5129220;27;20344;-77
2022/02/12 02:42:47;;;;;;;45.50;20.63;;;;;;;4.35;68.44;100643.69;5122113;28;20215;-78
2022/02/12 02:45:13;;;;;;;42.50;20.33;;;;;;;4.61;67.11;100655.91;5119223;28;20054;-78
2022/02/12 02:47:42;;;;;;;45.63;19.43;;;;;;;4.51;67.36;100648.75;5128560;27;20372;-76
2022/02/12 02:55:59;;;;;;;45.13;19.03;;;;;;;4.59;67.05;100662.22;5123859;27;20031;-76
2022/02/12 02:58:24;;;;;;;36.55;17.55;;;;;;;4.19;66.69;100667.44;5122662;28;20081;-77
2022/02/12 03:00:50;;;;;;;52.20;20.67;;;;;;;4.27;66.23;100646.81;5126817;28;20023;-76
2022/02/12 03:03:15;;;;;;;44.30;21.23;;;;;;;4.40;65.68;100668.66;5122380;28;20046;-77
2022/02/12 03:05:41;;;;;;;44.47;18.27;;;;;;;4.42;65.64;100668.56;5121096;28;20374;-76
2022/02/12 03:08:06;;;;;;;39.03;17.50;;;;;;;4.28;65.62;100666.84;5122026;28;20047;-76
2022/02/12 03:10:32;;;;;;;31.85;16.15;;;;;;;4.14;66.07;100657.22;5122288;28;20099;-76
2022/02/12 03:12:59;;;;;;;40.93;17.37;;;;;;;4.31;66.11;100682.38;5121270;28;20140;-76
2022/02/12 03:15:24;;;;;;;36.23;17.30;;;;;;;4.38;65.07;100682.81;5122403;28;20314;-74
2022/02/12 03:17:50;;;;;;;30.67;16.57;;;;;;;4.36;65.11;100680.28;5123434;28;20032;-77
2022/02/12 03:20:15;;;;;;;34.03;16.83;;;;;;;4.36;65.03;100679.47;5121426;28;20427;-77
2022/02/12 03:22:41;;;;;;;34.77;15.40;;;;;;;3.95;66.19;100653.25;5124284;28;20042;-76
2022/02/12 03:25:07;;;;;;;30.80;13.77;;;;;;;4.34;65.29;100678.72;5128928;28;20092;-76
2022/02/12 03:27:32;;;;;;;54.55;16.98;;;;;;;4.27;65.34;100686.13;5154636;27;20082;-76
2022/02/12 03:29:57;;;;;;;47.20;19.60;;;;;;;4.31;64.28;100692.88;5140538;28;20046;-76
2022/02/12 03:32:23;;;;;;;32.00;14.93;;;;;;;3.98;65.49;100701.06;5130090;27;20023;-73
2022/02/12 03:34:48;;;;;;;32.33;13.63;;;;;;;3.50;66.35;100691.88;5126587;28;20098;-77
2022/02/12 03:37:15;;;;;;;27.93;13.50;;;;;;;3.32;67.02;100712.16;5137312;28;20106;-74
2022/02/12 03:39:40;;;;;;;25.50;13.07;;;;;;;3.23;68.37;100706.63;5139017;28;20035;-78
2022/02/12 03:42:06;;;;;;;23.47;11.77;;;;;;;3.22;67.66;100677.00;5146041;27;20030;-77
2022/02/12 03:44:31;;;;;;;39.87;15.43;;;;;;;3.37;67.06;100690.94;5129234;27;20086;-75
2022/02/12 03:46:57;;;;;;;33.17;13.93;;;;;;;3.42;66.13;100700.19;5131239;27;20058;-76
2022/02/12 03:49:23;;;;;;;29.37;13.60;;;;;;;3.51;65.77;100697.00;5127676;27;20036;-75
2022/02/12 03:51:48;;;;;;;25.37;12.50;;;;;;;3.62;66.31;100727.78;5124775;28;20103;-74
2022/02/12 03:54:14;;;;;;;26.87;12.83;;;;;;;3.64;65.86;100722.44;5124681;27;20031;-73
2022/02/12 03:56:39;;;;;;;28.83;12.20;;;;;;;3.44;66.39;100715.81;5144914;27;20042;-73
2022/02/12 03:59:05;;;;;;;29.13;13.20;;;;;;;3.52;66.49;100716.19;5144633;27;20038;-76
2022/02/12 04:01:31;;;;;;;31.53;13.90;;;;;;;3.57;65.88;100693.16;5126250;27;20031;-76
2022/02/12 04:03:56;;;;;;;27.37;12.90;;;;;;;3.61;63.60;100710.38;5130091;27;20308;-76
2022/02/12 04:06:22;;;;;;;26.70;12.70;;;;;;;3.35;64.27;100727.66;5136844;27;20210;-77
2022/02/12 04:08:47;;;;;;;29.70;12.97;;;;;;;3.08;65.79;100703.97;5144887;27;20066;-76
2022/02/12 04:11:13;;;;;;;26.67;12.07;;;;;;;3.01;66.75;100717.50;5133275;27;20325;-74
2022/02/12 04:13:38;;;;;;;25.13;13.07;;;;;;;3.10;66.84;100728.25;5143827;27;20224;-75
2022/02/12 04:16:04;;;;;;;42.83;14.00;;;;;;;3.36;66.34;100734.59;5138211;27;20039;-76
2022/02/12 04:18:30;;;;;;;27.67;12.87;;;;;;;3.32;65.50;100737.47;5125426;28;20225;-76
2022/02/12 04:20:55;;;;;;;29.20;13.40;;;;;;;3.22;66.41;100745.03;5123944;27;20023;-76
2022/02/12 04:23:21;;;;;;;49.87;18.63;;;;;;;3.14;66.98;100736.81;5126105;27;20050;-77
2022/02/12 04:25:47;;;;;;;35.60;16.00;;;;;;;3.45;66.74;100746.28;5123881;28;20337;-74
2022/02/12 04:28:12;;;;;;;30.03;15.10;;;;;;;3.31;66.48;100754.13;5124629;27;20046;-77
2022/02/12 04:30:39;;;;;;;27.53;13.70;;;;;;;3.44;65.60;100750.69;5129585;27;20039;-77
2022/02/12 04:33:06;;;;;;;29.57;13.10;;;;;;;3.29;66.17;100759.44;5130244;27;20028;-76
2022/02/12 04:35:31;;;;;;;30.17;13.57;;;;;;;3.11;67.11;100747.41;5123677;28;20039;-76
2022/02/12 04:37:57;;;;;;;66.50;23.37;;;;;;;3.28;67.69;100746.47;5127346;27;20073;-76
2022/02/12 04:40:23;;;;;;;38.07;15.57;;;;;;;3.29;67.66;100741.13;5129532;27;20027;-77
2022/02/12 04:42:48;;;;;;;33.87;15.20;;;;;;;3.45;66.89;100756.75;5129291;27;20039;-77
2022/02/12 04:45:14;;;;;;;31.23;14.17;;;;;;;3.29;66.80;100737.66;5130871;27;20233;-78
2022/02/12 04:47:43;;;;;;;39.43;14.37;;;;;;;3.53;65.65;100746.66;5124740;27;20099;-77
2022/02/12 04:50:10;;;;;;;28.03;13.97;;;;;;;3.53;65.84;100741.44;5127800;27;20043;-74
2022/02/12 04:52:36;;;;;;;34.87;16.53;;;;;;;3.66;65.38;100747.59;5136671;27;20023;-74
2022/02/12 04:55:03;;;;;;;30.17;17.60;;;;;;;3.70;65.09;100748.25;5143354;27;20093;-76
2022/02/12 04:57:29;;;;;;;32.43;15.70;;;;;;;3.76;65.51;100753.97;5140572;27;20258;-76
2022/02/12 04:59:54;;;;;;;34.83;17.20;;;;;;;3.65;66.62;100745.91;5131344;27;20024;-75
2022/02/12 05:02:20;;;;;;;33.77;17.53;;;;;;;3.85;66.42;100761.25;5127459;27;20031;-74
2022/02/12 05:04:45;;;;;;;30.00;14.07;;;;;;;3.87;63.86;100758.53;5128423;27;20034;-77
2022/02/12 05:07:11;;;;;;;28.17;13.70;;;;;;;3.83;63.07;100773.63;5122129;28;20337;-77
2022/02/12 05:09:38;;;;;;;23.23;12.13;;;;;;;3.66;63.99;100767.72;5123476;27;20175;-74
2022/02/12 05:12:05;;;;;;;33.37;16.33;;;;;;;3.45;64.98;100778.56;5128248;27;20063;-74
2022/02/12 05:14:31;;;;;;;32.87;15.73;;;;;;;3.40;65.71;100770.13;5136767;27;20043;-75
2022/02/12 05:17:01;;;;;;;38.93;18.33;;;;;;;3.45;65.95;100760.22;5128972;27;20046;-76
2022/02/12 05:19:27;;;;;;;67.57;25.33;;;;;;;3.58;65.71;100789.13;5127137;27;20205;-75
2022/02/12 05:21:53;;;;;;;77.27;29.87;;;;;;;3.55;65.86;100784.06;5135965;27;20027;-77
2022/02/12 05:24:18;;;;;;;100.47;34.83;;;;;;;3.63;66.10;100773.97;5143234;27;20038;-77
2022/02/12 05:26:44;;;;;;;79.70;29.37;;;;;;;3.81;65.07;100783.34;5133077;27;20305;-77
2022/02/12 05:29:09;;;;;;;40.97;17.73;;;;;;;3.81;63.74;100791.19;5127964;27;20076;-77
2022/02/12 05:31:36;;;;;;;34.70;16.07;;;;;;;3.72;63.18;100790.91;5127320;27;20039;-74
2022/02/12 05:34:02;;;;;;;64.33;25.77;;;;;;;3.71;64.12;100805.78;5124056;27;20044;-76
2022/02/12 05:36:28;;;;;;;55.73;21.47;;;;;;;3.68;64.24;100782.41;5122766;28;20031;-76
2022/02/12 05:38:53;;;;;;;33.27;16.53;;;;;;;3.59;64.17;100792.59;5126452;27;20087;-76
2022/02/12 05:41:19;;;;;;;34.90;14.90;;;;;;;3.66;63.98;100804.38;5129237;27;20099;-77
2022/02/12 05:43:45;;;;;;;29.00;15.90;;;;;;;3.69;64.23;100815.53;5127530;27;20126;-74
2022/02/12 05:46:13;;;;;;;29.10;13.03;;;;;;;3.72;64.72;100814.50;5126419;27;20042;-78
2022/02/12 05:48:39;;;;;;;28.27;12.73;;;;;;;3.75;63.74;100812.53;5130835;27;20035;-74
2022/02/12 05:51:05;;;;;;;35.80;15.10;;;;;;;3.65;64.71;100821.88;5122501;27;20202;-78
2022/02/12 05:53:30;;;;;;;33.50;15.17;;;;;;;3.52;64.99;100813.06;5122467;28;20049;-76
2022/02/12 05:55:56;;;;;;;59.97;24.80;;;;;;;3.68;64.99;100815.63;5125916;27;20042;-76
2022/02/12 05:58:22;;;;;;;73.53;28.13;;;;;;;3.83;65.10;100833.03;5128972;27;20050;-76
2022/02/12 06:00:50;;;;;;;80.47;32.00;;;;;;;3.90;65.05;100821.25;5131874;27;20024;-75
2022/02/12 06:03:16;;;;;;;68.63;27.90;;;;;;;4.13;64.38;100820.66;5125969;27;20054;-75
2022/02/12 06:05:42;;;;;;;52.93;19.73;;;;;;;4.06;63.81;100834.25;5127576;27;20027;-77
2022/02/12 06:08:07;;;;;;;77.47;29.80;;;;;;;3.78;65.95;100846.41;5122506;27;20028;-77
2022/02/12 06:10:33;;;;;;;90.20;32.97;;;;;;;3.90;66.16;100834.34;5122003;28;20035;-77
2022/02/12 06:12:59;;;;;;;71.50;28.70;;;;;;;4.12;65.37;100821.59;5131196;27;20067;-73
2022/02/12 06:15:26;;;;;;;73.57;28.20;;;;;;;4.39;64.59;100836.59;5125597;27;20158;-73
2022/02/12 06:17:51;;;;;;;76.63;31.73;;;;;;;4.40;64.54;100849.59;5130302;27;20212;-75
2022/02/12 06:20:17;;;;;;;179.90;56.63;;;;;;;4.53;64.81;100862.78;5129946;27;20031;-76
2022/02/12 06:22:43;;;;;;;219.10;68.97;;;;;;;4.61;64.47;100844.78;5128514;27;20063;-76
2022/02/12 06:25:08;;;;;;;182.50;66.60;;;;;;;4.80;64.86;100861.03;5122214;27;20040;-76
2022/02/12 06:27:34;;;;;;;161.15;61.92;;;;;;;4.64;64.41;100836.72;5132012;27;20051;-75
2022/02/12 06:30:00;;;;;;;166.45;63.25;;;;;;;4.89;65.31;100866.66;5124424;27;20037;-77
2022/02/12 06:32:26;;;;;;;158.63;60.97;;;;;;;5.17;64.18;100870.94;5121590;28;20034;-77
2022/02/12 06:34:55;;;;;;;140.80;54.58;;;;;;;5.06;65.65;100874.28;5128683;27;20096;-76
2022/02/12 06:37:20;;;;;;;87.90;31.60;;;;;;;4.88;66.54;100880.72;5128185;27;20335;-74
2022/02/12 06:39:47;;;;;;;92.30;36.47;;;;;;;5.02;66.32;100876.25;5125429;27;20035;-77
2022/02/12 06:42:14;;;;;;;93.53;35.13;;;;;;;5.08;65.77;100859.25;5121769;28;20039;-76
2022/02/12 06:44:40;;;;;;;101.07;34.80;;;;;;;5.16;64.98;100880.63;5124173;27;20042;-76
2022/02/12 06:47:06;;;;;;;54.63;23.45;;;;;;;5.43;64.17;100881.47;5132475;27;20019;-76
2022/02/12 06:49:31;;;;;;;58.50;22.08;;;;;;;5.86;62.80;100894.34;5125924;27;20023;-76
2022/02/12 06:51:57;;;;;;;94.50;33.75;;;;;;;6.13;61.58;100888.19;5126676;27;20039;-74
2022/02/12 06:54:22;;;;;;;115.35;38.17;;;;;;;6.28;61.82;100889.78;5126378;28;20019;-74
2022/02/12 06:56:48;;;;;;;80.55;30.52;;;;;;;6.49;62.76;100897.97;5126025;28;20045;-77
2022/02/12 06:59:14;;;;;;;82.85;33.65;;;;;;;6.62;63.67;100902.25;5136720;27;20098;-74
2022/02/12 07:01:39;;;;;;;82.28;36.25;;;;;;;6.18;64.51;100894.81;5141901;27;20035;-77
2022/02/12 07:04:05;;;;;;;79.22;33.80;;;;;;;6.14;64.82;100872.31;5131710;27;20035;-76
2022/02/12 07:06:30;;;;;;;77.15;33.13;;;;;;;6.37;64.33;100899.66;5130961;28;20035;-76
2022/02/12 07:08:56;;;;;;;77.07;33.78;;;;;;;6.40;63.60;100881.03;5125094;28;20027;-75
2022/02/12 07:11:21;;;;;;;77.97;32.90;;;;;;;6.47;63.84;100910.38;5152162;27;20089;-74
2022/02/12 07:13:47;;;;;;;116.75;38.72;;;;;;;6.66;64.91;100908.13;5121194;28;20075;-77
2022/02/12 07:16:12;;;;;;;66.85;29.05;;;;;;;6.91;63.63;100894.06;5128921;28;20034;-75
2022/02/12 07:18:38;;;;;;;35.13;17.70;;;;;;;7.27;62.28;100896.66;5128198;27;20080;-76
2022/02/12 07:21:06;;;;;;;39.95;18.13;;;;;;;7.56;61.63;100894.53;5126544;27;20035;-76
2022/02/12 07:23:31;;;;;;;53.03;22.98;;;;;;;7.91;60.50;100897.13;5129721;27;20030;-76
2022/02/12 07:25:57;;;;;;;46.30;20.38;;;;;;;8.14;59.23;100895.38;5129894;27;20036;-77
2022/02/12 07:28:22;;;;;;;51.42;22.17;;;;;;;8.43;58.83;100889.69;5129050;27;20035;-76
2022/02/12 07:30:49;;;;;;;44.45;21.73;;;;;;;9.01;58.04;100903.53;5130785;27;20023;-75
2022/02/12 07:33:14;;;;;;;40.17;17.83;;;;;;;9.10;58.03;100903.63;5130783;27;20329;-78
2022/02/12 07:35:40;;;;;;;36.20;17.40;;;;;;;9.37;57.13;100905.84;5129534;27;20029;-75
2022/02/12 07:38:10;;;;;;;31.08;15.05;;;;;;;9.52;56.99;100906.41;5130087;27;20643;-78
2022/02/12 07:40:35;;;;;;;31.95;15.15;;;;;;;9.88;56.42;100905.13;5130402;27;20023;-77
2022/02/12 07:43:01;;;;;;;35.13;16.05;;;;;;;10.20;55.80;100894.47;5134484;27;20044;-76
2022/02/12 07:45:28;;;;;;;40.67;17.55;;;;;;;10.52;55.01;100912.91;5131989;27;20027;-77
2022/02/12 07:47:54;;;;;;;37.13;15.45;;;;;;;10.62;55.62;100912.94;5134047;27;20031;-77
2022/02/12 07:50:20;;;;;;;40.67;13.82;;;;;;;10.59;54.96;100916.69;5128578;27;20038;-78
2022/02/12 07:52:46;;;;;;;31.05;10.80;;;;;;;10.58;55.07;100904.44;5133501;27;20110;-78
2022/02/12 07:55:13;;;;;;;31.92;10.82;;;;;;;10.61;54.89;100893.56;5131092;27;20023;-78
2022/02/12 07:57:39;;;;;;;39.85;12.48;;;;;;;10.49;54.44;100906.06;5132345;27;20258;-77
2022/02/12 08:00:07;;;;;;;25.35;12.05;;;;;;;10.91;54.37;100905.09;5130853;27;20039;-77
2022/02/12 08:02:33;;;;;;;39.40;11.52;;;;;;;10.91;52.88;100903.28;5130689;27;20068;-76
2022/02/12 08:04:58;;;;;;;25.05;11.30;;;;;;;11.05;52.64;100894.09;5129900;27;20035;-75
2022/02/12 08:07:30;;;;;;;20.77;10.40;;;;;;;11.02;53.23;100894.38;5128557;27;20094;-77
2022/02/12 08:09:55;;;;;;;25.55;11.45;;;;;;;11.24;52.39;100895.94;5128515;27;20026;-76
2022/02/12 08:12:22;;;;;;;33.30;14.02;;;;;;;11.50;52.53;100903.22;5131367;27;20241;-77
2022/02/12 08:14:53;;;;;;;29.48;12.32;;;;;;;11.71;51.67;100904.91;5130860;27;20030;-77
2022/02/12 08:17:20;;;;;;;27.80;11.68;;;;;;;11.51;51.68;100870.44;5129513;27;20063;-77
2022/02/12 08:19:47;;;;;;;32.53;11.32;;;;;;;11.57;51.10;100887.59;5130412;27;20011;-78
2022/02/12 08:22:14;;;;;;;30.25;12.13;;;;;;;11.81;51.27;100909.25;5133241;27;20035;-78
2022/02/12 08:24:40;;;;;;;35.00;13.45;;;;;;;12.20;51.03;100906.50;5145071;27;20031;-78
2022/02/12 08:27:06;;;;;;;47.13;13.50;;;;;;;12.21;50.80;100916.16;5128394;27;20039;-78
2022/02/12 08:29:32;;;;;;;26.27;11.18;;;;;;;12.19;50.89;100917.28;5125571;27;20134;-76
2022/02/12 08:31:58;;;;;;;26.30;11.60;;;;;;;12.50;50.36;100913.44;5131050;27;21311;-77
2022/02/12 08:34:28;;;;;;;32.17;11.60;;;;;;;12.75;48.75;100910.09;5123947;27;20023;-77
2022/02/12 08:36:55;;;;;;;30.58;10.50;;;;;;;12.54;49.49;100922.78;5130121;27;20035;-75
2022/02/12 08:39:22;;;;;;;27.08;11.32;;;;;;;12.61;49.53;100915.06;5127734;27;20023;-78
2022/02/12 08:41:49;;;;;;;23.10;11.45;;;;;;;12.67;49.58;100931.25;5130465;27;20032;-76
2022/02/12 08:44:15;;;;;;;36.92;15.30;;;;;;;12.72;49.25;100933.47;5135390;27;20039;-77
2022/02/12 08:46:43;;;;;;;21.85;11.73;;;;;;;12.78;49.08;100928.41;5137813;27;20040;-77
2022/02/12 08:49:09;;;;;;;23.02;11.73;;;;;;;12.73;49.08;100927.16;5136558;27;20031;-75
2022/02/12 08:51:37;;;;;;;28.48;11.55;;;;;;;12.97;49.45;100918.66;5126523;27;20538;-77
2022/02/12 08:54:05;;;;;;;22.25;11.65;;;;;;;13.03;48.88;100932.19;5131043;27;20015;-76
2022/02/12 08:56:32;;;;;;;28.88;11.75;;;;;;;13.09;48.54;100928.94;5133119;27;20035;-78
2022/02/12 08:58:58;;;;;;;25.73;12.90;;;;;;;13.17;48.60;100917.56;5127292;27;20041;-77
2022/02/12 09:01:24;;;;;;;27.40;13.82;;;;;;;13.25;49.36;100915.00;5129465;27;20019;-77
2022/02/12 09:03:49;;;;;;;29.50;12.45;;;;;;;13.22;48.24;100919.78;5131709;27;20027;-77
2022/02/12 09:06:15;;;;;;;29.70;13.32;;;;;;;13.07;49.17;100927.41;5127263;27;20115;-77
2022/02/12 09:08:40;;;;;;;30.27;13.45;;;;;;;13.21;49.56;100918.94;5130229;27;20043;-78
2022/02/12 09:11:06;;;;;;;26.80;13.25;;;;;;;13.25;48.92;100925.63;5142383;27;20039;-78
2022/02/12 09:13:32;;;;;;;28.88;13.55;;;;;;;13.46;48.85;100922.69;5140991;27;20037;-76
2022/02/12 09:15:57;;;;;;;27.05;13.10;;;;;;;13.60;48.60;100922.19;5132346;27;20023;-77
2022/02/12 09:18:23;;;;;;;25.45;14.30;;;;;;;13.92;48.27;100934.94;5132111;27;20027;-77
2022/02/12 09:20:48;;;;;;;28.50;14.27;;;;;;;14.13;47.90;100923.09;5133899;27;20011;-77
2022/02/12 09:23:14;;;;;;;33.53;15.70;;;;;;;13.86;47.83;100905.41;5144002;27;20041;-75
2022/02/12 09:25:40;;;;;;;35.17;16.02;;;;;;;13.87;47.49;100931.06;5136899;27;20095;-78
2022/02/12 09:28:05;;;;;;;32.30;14.57;;;;;;;13.91;48.03;100933.25;5139289;27;20080;-76
2022/02/12 09:30:31;;;;;;;28.90;13.65;;;;;;;13.91;47.50;100929.75;5123561;28;20291;-76
2022/02/12 09:32:57;;;;;;;26.63;13.95;;;;;;;13.74;47.51;100929.63;5126842;27;20024;-77
2022/02/12 09:35:24;;;;;;;24.35;14.00;;;;;;;13.73;47.41;100927.13;5123802;28;20038;-77
2022/02/12 09:37:50;;;;;;;25.58;13.60;;;;;;;13.61;47.34;100894.56;5125530;27;20023;-78
2022/02/12 09:40:16;;;;;;;25.45;14.32;;;;;;;14.03;48.10;100939.16;5142998;27;20094;-78
2022/02/12 09:42:42;;;;;;;35.33;16.73;;;;;;;14.18;48.16;100920.78;5130520;27;20040;-77
2022/02/12 09:45:08;;;;;;;29.92;14.50;;;;;;;14.26;47.23;100924.34;5127971;27;20053;-77
2022/02/12 09:47:47;;;;;;;28.08;15.27;;;;;;;14.13;47.74;100928.41;5123258;27;20031;-77
2022/02/12 09:50:15;;;;;;;31.10;16.52;;;;;;;14.04;47.35;100909.72;5124381;27;20027;-75
2022/02/12 09:52:46;;;;;;;26.02;14.82;;;;;;;14.12;48.11;100921.41;5124547;27;20034;-76
2022/02/12 09:55:12;;;;;;;26.35;14.68;;;;;;;13.95;47.44;100897.34;5124119;28;20034;-77
2022/02/12 09:57:38;;;;;;;26.15;15.02;;;;;;;13.87;48.37;100915.06;5124205;28;20035;-77
2022/02/12 10:00:09;;;;;;;24.55;14.52;;;;;;;14.05;47.54;100906.06;5124329;27;20062;-77
2022/02/12 10:02:34;;;;;;;34.38;14.60;;;;;;;14.04;47.66;100911.53;5122907;27;20035;-78
2022/02/12 10:05:20;;;;;;;26.25;13.57;;;;;;;14.09;47.89;100911.91;5124149;27;20027;-76
2022/02/12 10:07:47;;;;;;;25.75;13.77;;;;;;;14.12;47.36;100898.28;5124000;27;20038;-77
2022/02/12 10:10:20;;;;;;;26.08;13.23;;;;;;;13.86;47.93;100892.09;5123889;28;20059;-77
2022/02/12 10:12:47;;;;;;;29.27;14.73;;;;;;;13.97;47.91;100897.19;5124001;27;20095;-77
2022/02/12 10:15:24;;;;;;;31.65;14.63;;;;;;;14.01;48.25;100901.19;5124104;28;20283;-77
2022/02/12 10:17:56;;;;;;;24.45;14.32;;;;;;;14.06;47.69;100889.09;5122878;27;20024;-76
2022/02/12 10:20:32;;;;;;;28.15;16.20;;;;;;;14.06;48.03;100901.56;5122665;28;20161;-76
2022/02/12 10:23:08;;;;;;;25.80;14.25;;;;;;;14.05;47.23;100902.56;5123966;28;20329;-77
2022/02/12 10:25:36;;;;;;;29.10;15.88;;;;;;;14.11;46.98;100899.28;5122493;28;20312;-77
2022/02/12 10:28:03;;;;;;;27.05;14.70;;;;;;;14.00;46.53;100884.38;5123591;28;20027;-76
2022/02/12 10:30:30;;;;;;;23.30;13.93;;;;;;;14.04;46.92;100885.75;5123982;27;20190;-76
2022/02/12 10:33:01;;;;;;;27.60;15.00;;;;;;;13.96;46.74;100877.69;5123651;28;20031;-75
2022/02/12 10:35:29;;;;;;;22.15;13.20;;;;;;;13.99;46.61;100885.38;5123655;27;20230;-75
2022/02/12 10:38:15;;;;;;;29.05;14.27;;;;;;;14.09;46.57;100882.63;5126462;27;20051;-76
2022/02/12 10:40:42;;;;;;;26.80;14.57;;;;;;;14.25;46.41;100885.38;5130132;27;20047;-77
2022/02/12 10:43:08;;;;;;;26.58;15.35;;;;;;;14.23;45.70;100882.03;5138725;27;20397;-76
2022/02/12 10:45:34;;;;;;;27.20;13.80;;;;;;;14.24;45.99;100881.03;5138661;27;20317;-77
2022/02/12 10:48:00;;;;;;;27.13;12.95;;;;;;;14.27;45.40;100874.56;5130847;27;20041;-77
2022/02/12 10:50:28;;;;;;;23.70;12.93;;;;;;;14.40;44.94;100874.97;5136668;27;20399;-76
2022/02/12 10:53:00;;;;;;;21.70;12.23;;;;;;;14.26;45.04;100875.56;5120759;28;20221;-75
2022/02/12 10:55:35;;;;;;;22.55;12.93;;;;;;;14.33;46.02;100877.41;5135734;28;20058;-77
2022/02/12 10:58:16;;;;;;;21.42;12.57;;;;;;;14.14;45.63;100861.66;5142966;27;20023;-76
2022/02/12 11:00:43;;;;;;;23.40;12.40;;;;;;;14.40;45.33;100869.63;5127432;28;20107;-76
2022/02/12 11:03:12;;;;;;;24.75;12.48;;;;;;;14.37;45.28;100859.28;5126435;28;20090;-77
2022/02/12 11:05:42;;;;;;;22.88;11.63;;;;;;;14.46;44.32;100862.84;5126991;28;20039;-78
2022/02/12 11:08:09;;;;;;;16.67;10.35;;;;;;;14.44;44.02;100870.19;5129605;27;20016;-77
2022/02/12 11:10:37;;;;;;;21.75;10.95;;;;;;;14.42;44.14;100859.69;5128981;27;20035;-77
2022/02/12 11:13:04;;;;;;;18.98;9.55;;;;;;;14.42;43.63;100864.13;5128855;28;20221;-78
2022/02/12 11:15:30;;;;;;;21.02;10.00;;;;;;;14.27;44.10;100851.41;5125317;28;20046;-75
2022/02/12 11:17:59;;;;;;;19.70;9.93;;;;;;;14.43;44.12;100855.19;5130128;27;20259;-76